Time;durP1;ratioP1;P1;durP2;ratioP2;P2;SDS_P1;SDS_P2;PMS_P1;PMS_P2;Temp;Humidity;BMP_temperature;BMP_pressure;BME280_temperature;BME280_humidity;BME280_pressure;Samples;Min_cycle;Max_cycle;Signal;HPM_P1;HPM_P2
2023/04/25 00:01:29;;;;;;;0.35;0.35;;;10.40;99.90;;;;;;5087623;28;20020;-73
2023/04/25 00:03:55;;;;;;;0.10;0.10;;;10.40;99.90;;;;;;5087402;28;20028;-73
2023/04/25 00:06:21;;;;;;;0.10;0.10;;;10.40;99.90;;;;;;5090237;28;20031;-75
2023/04/25 00:08:48;;;;;;;0.10;0.10;;;10.40;99.90;;;;;;5090900;28;20044;-76
2023/04/25 00:11:14;;;;;;;0.10;0.10;;;10.40;99.90;;;;;;5088703;28;20077;-73
2023/04/25 00:13:41;;;;;;;4.85;4.38;;;10.40;99.90;;;;;;5089051;28;20024;-74
2023/04/25 00:16:07;;;;;;;1.00;1.00;;;10.40;99.90;;;;;;5086044;28;20040;-73
2023/04/25 00:18:33;;;;;;;4.45;4.13;;;10.40;99.90;;;;;;5083432;28;20024;-77
2023/04/25 00:20:59;;;;;;;0.08;0.08;;;10.40;99.90;;;;;;5082083;28;20027;-76
2023/04/25 00:23:24;;;;;;;0.10;0.10;;;10.40;99.90;;;;;;5082062;28;20040;-72
2023/04/25 00:25:50;;;;;;;0.10;0.10;;;10.40;99.90;;;;;;5081037;28;20023;-73
2023/04/25 00:28:16;;;;;;;0.10;0.10;;;10.40;99.90;;;;;;5081171;28;20673;-72
2023/04/25 00:30:43;;;;;;;0.10;0.10;;;10.40;99.90;;;;;;5082405;28;20028;-73
2023/04/25 00:33:09;;;;;;;0.13;0.13;;;10.30;99.90;;;;;;5082132;28;20820;-72
2023/04/25 00:35:36;;;;;;;0.20;0.20;;;10.20;99.90;;;;;;5083935;28;20027;-73
2023/04/25 00:38:02;;;;;;;0.10;0.10;;;10.20;99.90;;;;;;5081250;28;20024;-72
2023/04/25 00:40:28;;;;;;;0.10;0.10;;;10.20;99.90;;;;;;5082850;28;20028;-74
2023/04/25 00:42:54;;;;;;;0.10;0.10;;;10.10;99.90;;;;;;5082918;28;20020;-72
2023/04/25 00:45:20;;;;;;;0.10;0.10;;;10.20;99.90;;;;;;5082286;28;20289;-72
2023/04/25 00:47:47;;;;;;;1.08;1.08;;;10.20;99.90;;;;;;5081090;28;20047;-73
2023/04/25 00:50:13;;;;;;;0.10;0.10;;;10.20;99.90;;;;;;5081287;28;20020;-72
2023/04/25 00:52:44;;;;;;;0.10;0.10;;;10.20;99.90;;;;;;5081649;28;20015;-75
2023/04/25 00:55:12;;;;;;;0.10;0.10;;;10.20;99.90;;;;;;5081224;28;20025;-72
2023/04/25 00:57:38;;;;;;;0.00;0.00;;;10.10;99.90;;;;;;5081691;28;20661;-73
2023/04/25 01:00:07;;;;;;;0.10;0.10;;;10.10;99.90;;;;;;5080592;28;20020;-73
2023/04/25 01:02:35;;;;;;;0.63;0.63;;;10.00;99.90;;;;;;5079357;28;20024;-72
2023/04/25 01:05:01;;;;;;;0.35;0.35;;;10.10;99.90;;;;;;5081837;28;20012;-73
2023/04/25 01:07:27;;;;;;;1.55;1.55;;;10.10;99.90;;;;;;5080242;28;20028;-73
2023/04/25 01:09:53;;;;;;;0.10;0.10;;;10.20;99.90;;;;;;5080372;28;20051;-75
2023/04/25 01:12:19;;;;;;;0.22;0.22;;;10.20;99.90;;;;;;5081762;28;20052;-72
2023/04/25 01:14:45;;;;;;;0.10;0.10;;;10.20;99.90;;;;;;5081009;28;20024;-73
2023/04/25 01:17:11;;;;;;;0.15;0.15;;;10.30;99.90;;;;;;5079671;28;20016;-73
2023/04/25 01:19:37;;;;;;;0.10;0.10;;;10.30;99.90;;;;;;5079504;28;20016;-73
2023/04/25 01:22:03;;;;;;;0.15;0.15;;;10.30;99.90;;;;;;5081041;28;20027;-73
2023/04/25 01:24:31;;;;;;;6.72;6.43;;;10.30;99.90;;;;;;5082565;28;20008;-74
2023/04/25 01:26:58;;;;;;;0.00;0.00;;;10.20;99.90;;;;;;5079724;28;20623;-73
2023/04/25 01:29:25;;;;;;;0.20;0.20;;;10.20;99.90;;;;;;5080738;28;20028;-74
2023/04/25 01:31:52;;;;;;;0.10;0.10;;;10.10;99.90;;;;;;5080651;28;20020;-72
2023/04/25 01:34:18;;;;;;;0.10;0.10;;;10.10;99.90;;;;;;5080168;28;20046;-73
2023/04/25 01:36:44;;;;;;;6.70;5.28;;;10.20;99.90;;;;;;5080962;28;20027;-74
2023/04/25 01:39:10;;;;;;;0.63;0.63;;;10.20;99.90;;;;;;5081129;28;20251;-73
2023/04/25 01:41:36;;;;;;;1.60;1.58;;;10.20;99.90;;;;;;5080743;28;20032;-73
2023/04/25 01:44:02;;;;;;;0.20;0.20;;;10.20;99.90;;;;;;5080465;28;20012;-72
2023/04/25 01:46:28;;;;;;;0.10;0.10;;;10.10;99.90;;;;;;5081605;28;20012;-73
2023/04/25 01:48:54;;;;;;;0.20;0.20;;;10.20;99.90;;;;;;5079762;28;20052;-72
2023/04/25 01:51:20;;;;;;;6.53;6.22;;;10.20;99.90;;;;;;5078518;28;20043;-72
2023/04/25 01:53:46;;;;;;;0.10;0.10;;;10.10;99.90;;;;;;5080635;28;20032;-72
2023/04/25 01:56:12;;;;;;;0.10;0.10;;;10.10;99.90;;;;;;5080976;28;20038;-73
2023/04/25 01:58:37;;;;;;;0.10;0.10;;;10.00;99.90;;;;;;5081357;28;20108;-71
2023/04/25 02:01:03;;;;;;;0.10;0.10;;;10.00;99.90;;;;;;5080509;28;20052;-73
2023/04/25 02:03:31;;;;;;;0.13;0.13;;;10.00;99.90;;;;;;5082173;28;20016;-72
2023/04/25 02:05:56;;;;;;;0.10;0.10;;;10.00;99.90;;;;;;5081634;28;20665;-73
2023/04/25 02:08:22;;;;;;;0.00;0.00;;;10.00;99.90;;;;;;5078052;28;20097;-72
2023/04/25 02:10:48;;;;;;;0.03;0.03;;;10.00;99.90;;;;;;5081856;28;20046;-73
2023/04/25 02:13:14;;;;;;;0.10;0.10;;;10.00;99.90;;;;;;5080518;28;20026;-72
2023/04/25 02:15:40;;;;;;;0.10;0.10;;;9.90;99.90;;;;;;5080114;28;20073;-74
2023/04/25 02:18:06;;;;;;;0.00;0.00;;;9.90;99.90;;;;;;5086531;28;20654;-73
2023/04/25 02:20:32;;;;;;;0.10;0.10;;;9.90;99.90;;;;;;5089163;28;20045;-76
2023/04/25 02:22:58;;;;;;;0.10;0.10;;;9.90;99.90;;;;;;5091524;28;20016;-74
2023/04/25 02:25:24;;;;;;;0.00;0.00;;;10.00;99.90;;;;;;5090645;28;20031;-72
2023/04/25 02:27:51;;;;;;;0.00;0.00;;;10.00;99.90;;;;;;5088339;28;20040;-72
2023/04/25 02:30:17;;;;;;;0.10;0.10;;;10.00;99.90;;;;;;5091344;28;20063;-73
2023/04/25 02:32:42;;;;;;;0.20;0.20;;;10.00;99.90;;;;;;5097030;28;20650;-72
2023/04/25 02:35:08;;;;;;;0.10;0.10;;;10.00;99.90;;;;;;5097132;28;20024;-72
2023/04/25 02:37:36;;;;;;;0.10;0.10;;;10.00;99.90;;;;;;5092824;28;20641;-72
2023/04/25 02:40:03;;;;;;;0.05;0.05;;;10.00;99.90;;;;;;5099776;28;20016;-73
2023/04/25 02:42:29;;;;;;;0.10;0.10;;;10.00;99.90;;;;;;5101404;28;20012;-74
2023/04/25 02:44:55;;;;;;;0.10;0.10;;;9.90;99.90;;;;;;5096698;28;20681;-79
2023/04/25 02:47:21;;;;;;;0.10;0.10;;;10.00;99.90;;;;;;5094555;28;20277;-72
2023/04/25 02:49:46;;;;;;;0.08;0.08;;;10.00;99.90;;;;;;5089374;28;20036;-73
2023/04/25 02:52:12;;;;;;;0.10;0.10;;;9.90;99.90;;;;;;5090015;28;20024;-75
2023/04/25 02:54:39;;;;;;;0.00;0.00;;;9.90;99.90;;;;;;5091367;28;20016;-73
2023/04/25 02:57:05;;;;;;;1.58;1.50;;;9.90;99.90;;;;;;5090801;28;20067;-73
2023/04/25 02:59:31;;;;;;;0.52;0.52;;;9.90;99.90;;;;;;5089060;28;20021;-73
2023/04/25 03:01:57;;;;;;;0.10;0.10;;;9.90;99.90;;;;;;5088310;28;20016;-73
2023/04/25 03:04:23;;;;;;;0.55;0.55;;;10.00;99.90;;;;;;5084459;28;20020;-71
2023/04/25 03:06:52;;;;;;;0.17;0.17;;;10.00;99.90;;;;;;5081613;28;20166;-72
2023/04/25 03:09:18;;;;;;;0.10;0.10;;;10.00;99.90;;;;;;5082735;28;20603;-73
2023/04/25 03:11:44;;;;;;;0.10;0.10;;;10.00;99.90;;;;;;5085227;28;20020;-70
2023/04/25 03:14:11;;;;;;;0.20;0.20;;;10.00;99.90;;;;;;5084038;28;20035;-74
2023/04/25 03:16:36;;;;;;;2.58;2.47;;;10.00;99.90;;;;;;5086374;28;20020;-74
2023/04/25 03:19:03;;;;;;;0.10;0.10;;;10.00;99.90;;;;;;5087253;28;20024;-73
2023/04/25 03:21:31;;;;;;;0.10;0.10;;;10.00;99.90;;;;;;5086565;28;20081;-73
2023/04/25 03:23:57;;;;;;;0.10;0.10;;;10.00;99.90;;;;;;5088436;28;20681;-71
2023/04/25 03:26:23;;;;;;;0.10;0.10;;;10.00;99.90;;;;;;5090920;28;20028;-73
2023/04/25 03:28:49;;;;;;;0.10;0.10;;;10.00;99.90;;;;;;5094337;28;20035;-72
2023/04/25 03:31:15;;;;;;;0.10;0.10;;;10.10;99.90;;;;;;5094586;28;20051;-77
2023/04/25 03:33:41;;;;;;;0.68;0.68;;;10.10;99.90;;;;;;5094931;28;20470;-73
2023/04/25 03:36:07;;;;;;;0.10;0.10;;;10.10;99.90;;;;;;5095613;28;20023;-75
2023/04/25 03:38:33;;;;;;;0.20;0.20;;;10.10;99.90;;;;;;5097732;28;20016;-74
2023/04/25 03:40:58;;;;;;;0.10;0.10;;;10.10;99.90;;;;;;5094776;28;20028;-82
2023/04/25 03:43:24;;;;;;;0.10;0.10;;;10.10;99.90;;;;;;5098107;28;20499;-75
2023/04/25 03:45:50;;;;;;;0.10;0.10;;;10.00;99.90;;;;;;5090830;28;20027;-73
2023/04/25 03:48:16;;;;;;;0.10;0.10;;;10.00;99.90;;;;;;5090688;28;20052;-76
2023/04/25 03:50:41;;;;;;;0.10;0.10;;;9.90;99.90;;;;;;5095165;28;20024;-74
2023/04/25 03:53:07;;;;;;;0.20;0.20;;;9.90;99.90;;;;;;5098905;28;20101;-74
2023/04/25 03:55:33;;;;;;;0.00;0.00;;;9.80;99.90;;;;;;5095594;28;20035;-73
2023/04/25 03:57:58;;;;;;;0.10;0.10;;;9.90;99.90;;;;;;5090063;28;20016;-73
2023/04/25 04:00:25;;;;;;;0.10;0.10;;;9.90;99.90;;;;;;5092050;28;20031;-73
2023/04/25 04:02:51;;;;;;;0.13;0.13;;;9.80;99.90;;;;;;5096507;28;20012;-74
2023/04/25 04:05:17;;;;;;;0.10;0.10;;;9.80;99.90;;;;;;5096421;28;20525;-77
2023/04/25 04:07:43;;;;;;;2.78;2.67;;;9.80;99.90;;;;;;5094742;28;20027;-73
2023/04/25 04:10:11;;;;;;;0.13;0.13;;;9.70;99.90;;;;;;5092914;28;20043;-73
2023/04/25 04:12:38;;;;;;;0.10;0.10;;;9.70;99.90;;;;;;5085304;28;20220;-73
2023/04/25 04:15:05;;;;;;;0.10;0.10;;;9.60;99.90;;;;;;5087646;28;20193;-71
2023/04/25 04:17:33;;;;;;;0.10;0.10;;;9.70;99.90;;;;;;5090749;28;20020;-72
2023/04/25 04:19:59;;;;;;;0.10;0.10;;;9.60;99.90;;;;;;5087766;28;20107;-73
2023/04/25 04:22:25;;;;;;;0.10;0.10;;;9.60;99.90;;;;;;5084098;28;20056;-72
2023/04/25 04:24:51;;;;;;;0.00;0.00;;;9.60;99.90;;;;;;5086731;28;20036;-73
2023/04/25 04:27:19;;;;;;;0.10;0.10;;;9.60;99.90;;;;;;5086946;28;20033;-72
2023/04/25 04:29:45;;;;;;;0.10;0.10;;;9.60;99.90;;;;;;5088043;28;20049;-72
2023/04/25 04:32:13;;;;;;;0.10;0.10;;;9.50;99.90;;;;;;5085080;28;20030;-72
2023/04/25 04:34:39;;;;;;;0.10;0.10;;;9.50;99.90;;;;;;5079667;28;20012;-72
2023/04/25 04:37:06;;;;;;;0.10;0.10;;;9.50;99.90;;;;;;5077978;28;20024;-72
2023/04/25 04:39:33;;;;;;;0.38;0.38;;;9.50;99.90;;;;;;5077515;28;20123;-73
2023/04/25 04:42:01;;;;;;;0.20;0.20;;;9.50;99.90;;;;;;5079507;28;20084;-74
2023/04/25 04:44:28;;;;;;;0.00;0.00;;;9.50;99.90;;;;;;5079434;28;20016;-72
2023/04/25 04:46:54;;;;;;;0.10;0.10;;;9.60;99.90;;;;;;5079101;28;20549;-72
2023/04/25 04:49:20;;;;;;;0.00;0.00;;;9.60;99.90;;;;;;5085024;28;20088;-73
2023/04/25 04:51:46;;;;;;;0.20;0.20;;;9.70;99.90;;;;;;5086718;28;20478;-72
2023/04/25 04:54:13;;;;;;;0.10;0.10;;;9.70;99.90;;;;;;5082828;28;20559;-72
2023/04/25 04:56:38;;;;;;;0.10;0.10;;;9.70;99.90;;;;;;5086430;28;20016;-73
2023/04/25 04:59:04;;;;;;;0.10;0.10;;;9.70;99.90;;;;;;5088393;28;20121;-73
2023/04/25 05:01:30;;;;;;;0.10;0.10;;;9.70;99.90;;;;;;5087852;28;20687;-72
2023/04/25 05:04:00;;;;;;;0.00;0.00;;;9.70;99.90;;;;;;5089079;28;20024;-72
2023/04/25 05:06:26;;;;;;;0.25;0.25;;;9.70;99.90;;;;;;5094251;28;20016;-77
2023/04/25 05:08:52;;;;;;;0.00;0.00;;;9.60;99.90;;;;;;5087708;28;20142;-72
2023/04/25 05:11:19;;;;;;;3.58;3.10;;;9.60;99.90;;;;;;5091087;28;20734;-71
2023/04/25 05:13:45;;;;;;;0.10;0.10;;;9.50;99.90;;;;;;5097443;28;20044;-74
2023/04/25 05:16:12;;;;;;;0.10;0.10;;;9.60;99.90;;;;;;5096710;28;20008;-73
2023/04/25 05:18:39;;;;;;;0.10;0.10;;;9.50;99.90;;;;;;5083952;28;20028;-72
2023/04/25 05:21:05;;;;;;;1.10;1.10;;;9.60;99.90;;;;;;5080494;28;20031;-73
2023/04/25 05:23:32;;;;;;;0.03;0.03;;;9.50;99.90;;;;;;5079923;28;20027;-72
2023/04/25 05:25:59;;;;;;;0.10;0.10;;;9.50;99.90;;;;;;5080117;28;20031;-73
2023/04/25 05:28:25;;;;;;;0.10;0.10;;;9.40;99.90;;;;;;5079244;28;20020;-73
2023/04/25 05:30:50;;;;;;;0.10;0.10;;;9.40;99.90;;;;;;5082127;28;20031;-72
2023/04/25 05:33:16;;;;;;;0.10;0.10;;;9.40;99.90;;;;;;5082771;28;20026;-72
2023/04/25 05:35:42;;;;;;;0.10;0.10;;;9.30;99.90;;;;;;5083121;28;20016;-72
2023/04/25 05:38:08;;;;;;;0.10;0.10;;;9.20;99.90;;;;;;5082818;28;20736;-72
2023/04/25 05:40:34;;;;;;;0.00;0.00;;;9.30;99.90;;;;;;5082806;28;20023;-74
2023/04/25 05:43:03;;;;;;;0.05;0.05;;;9.20;99.90;;;;;;5082350;28;20036;-76
2023/04/25 05:45:29;;;;;;;0.10;0.10;;;9.10;99.90;;;;;;5082272;28;20100;-74
2023/04/25 05:47:55;;;;;;;0.10;0.10;;;9.10;99.90;;;;;;5084235;28;20071;-72
2023/04/25 05:50:21;;;;;;;0.10;0.10;;;9.10;99.90;;;;;;5089795;28;20084;-74
2023/04/25 05:52:46;;;;;;;0.10;0.10;;;9.10;99.90;;;;;;5090071;28;20016;-73
2023/04/25 05:55:13;;;;;;;0.15;0.15;;;9.10;99.90;;;;;;5089972;28;20569;-74
2023/04/25 05:57:41;;;;;;;0.00;0.00;;;9.10;99.90;;;;;;5093095;28;20012;-73
2023/04/25 06:00:12;;;;;;;0.10;0.10;;;9.10;99.90;;;;;;5089751;28;20043;-72
2023/04/25 06:02:38;;;;;;;0.10;0.10;;;9.10;99.90;;;;;;5090329;28;20012;-75
2023/04/25 06:05:04;;;;;;;0.00;0.00;;;9.10;99.90;;;;;;5091237;28;20146;-72
2023/04/25 06:07:30;;;;;;;0.10;0.10;;;9.20;99.90;;;;;;5098158;28;20027;-72
2023/04/25 06:09:56;;;;;;;0.10;0.10;;;9.20;99.90;;;;;;5092669;28;20056;-74
2023/04/25 06:12:22;;;;;;;0.10;0.10;;;7.50;99.90;;;;;;5088449;28;20012;-73
2023/04/25 06:14:48;;;;;;;0.00;0.00;;;9.10;99.90;;;;;;5087493;28;20050;-72
2023/04/25 06:17:14;;;;;;;0.10;0.10;;;9.10;99.90;;;;;;5090456;28;20523;-72
2023/04/25 06:19:39;;;;;;;0.03;0.03;;;9.10;99.90;;;;;;5083520;28;20291;-72
2023/04/25 06:22:07;;;;;;;0.10;0.10;;;9.10;99.90;;;;;;5083804;28;20046;-72
2023/04/25 06:24:33;;;;;;;0.10;0.10;;;9.10;99.90;;;;;;5082431;28;20017;-72
2023/04/25 06:26:58;;;;;;;0.10;0.10;;;9.10;99.90;;;;;;5084448;28;20022;-73
2023/04/25 06:29:24;;;;;;;0.10;0.10;;;9.00;99.90;;;;;;5087780;28;20165;-72
2023/04/25 06:31:50;;;;;;;0.03;0.03;;;9.00;99.90;;;;;;5083014;28;20654;-72
2023/04/25 06:34:16;;;;;;;0.10;0.10;;;9.00;99.90;;;;;;5082655;28;20020;-73
2023/04/25 06:36:41;;;;;;;0.00;0.00;;;9.00;99.90;;;;;;5083950;28;20759;-72
2023/04/25 06:39:08;;;;;;;0.00;0.00;;;8.90;99.90;;;;;;5082866;28;20020;-72
2023/04/25 06:41:35;;;;;;;0.10;0.10;;;8.80;99.90;;;;;;5083410;28;20048;-73
2023/04/25 06:44:00;;;;;;;0.08;0.08;;;8.80;99.90;;;;;;5083377;28;20111;-72
2023/04/25 06:46:27;;;;;;;0.10;0.10;;;8.80;99.90;;;;;;5083261;28;20467;-72
2023/04/25 06:48:52;;;;;;;0.10;0.10;;;8.90;99.90;;;;;;5082736;28;20051;-72
2023/04/25 06:51:18;;;;;;;0.10;0.10;;;8.90;99.90;;;;;;5082124;28;20020;-73
2023/04/25 06:53:44;;;;;;;0.10;0.10;;;8.90;99.90;;;;;;5083120;28;20059;-73
2023/04/25 06:56:10;;;;;;;0.10;0.10;;;9.00;99.90;;;;;;5081130;28;20028;-73
2023/04/25 06:58:35;;;;;;;0.10;0.10;;;9.00;99.90;;;;;;5083641;28;20062;-73
2023/04/25 07:01:01;;;;;;;0.10;0.10;;;9.10;99.90;;;;;;5083671;28;20666;-73
2023/04/25 07:03:27;;;;;;;0.10;0.10;;;9.10;99.90;;;;;;5085133;28;20015;-73
2023/04/25 07:05:52;;;;;;;0.10;0.10;;;9.20;99.90;;;;;;5086935;28;20024;-71
2023/04/25 07:08:18;;;;;;;0.10;0.10;;;9.20;99.90;;;;;;5091288;28;20436;-72
2023/04/25 07:10:45;;;;;;;0.10;0.10;;;9.30;99.90;;;;;;5087735;28;20596;-72
2023/04/25 07:13:11;;;;;;;0.10;0.10;;;9.30;99.90;;;;;;5084310;28;20099;-72
2023/04/25 07:15:37;;;;;;;0.10;0.10;;;9.20;99.90;;;;;;5081301;28;20174;-70
2023/04/25 07:18:03;;;;;;;0.00;0.00;;;9.00;99.90;;;;;;5081077;28;20020;-73
2023/04/25 07:20:36;;;;;;;6.10;5.68;;;10.20;99.90;;;;;;5085130;28;20035;-71
2023/04/25 07:23:02;;;;;;;0.10;0.10;;;9.10;99.90;;;;;;5079653;28;20548;-73
2023/04/25 07:25:28;;;;;;;0.10;0.10;;;9.00;99.90;;;;;;5081343;28;20054;-74
2023/04/25 07:27:53;;;;;;;0.10;0.10;;;9.20;99.90;;;;;;5080733;28;20027;-72
2023/04/25 07:30:19;;;;;;;0.10;0.10;;;9.20;99.90;;;;;;5081614;28;20028;-73
2023/04/25 07:32:45;;;;;;;0.17;0.17;;;9.20;99.90;;;;;;5084318;28;20028;-75
2023/04/25 07:35:11;;;;;;;0.00;0.00;;;9.20;99.90;;;;;;5081679;28;20108;-72
2023/04/25 07:37:36;;;;;;;0.00;0.00;;;9.20;99.90;;;;;;5081458;28;20103;-72
2023/04/25 07:40:06;;;;;;;0.10;0.10;;;9.40;99.90;;;;;;5081764;28;20021;-73
2023/04/25 07:42:32;;;;;;;0.10;0.10;;;9.40;99.90;;;;;;5089340;28;20023;-72
2023/04/25 07:44:58;;;;;;;0.10;0.10;;;9.50;99.90;;;;;;5081529;28;20458;-72
2023/04/25 07:47:23;;;;;;;0.00;0.00;;;9.60;99.90;;;;;;5081355;28;20035;-71
2023/04/25 07:49:49;;;;;;;0.10;0.10;;;9.80;99.90;;;;;;5081730;28;20521;-72
2023/04/25 07:52:15;;;;;;;0.10;0.10;;;9.90;99.90;;;;;;5083558;28;20634;-72
2023/04/25 07:54:41;;;;;;;0.10;0.10;;;10.00;99.90;;;;;;5082029;28;20525;-73
2023/04/25 07:57:07;;;;;;;0.10;0.10;;;9.90;99.90;;;;;;5081978;28;20012;-74
2023/04/25 07:59:33;;;;;;;0.20;0.20;;;9.90;99.90;;;;;;5080276;28;20766;-72
2023/04/25 08:01:59;;;;;;;0.20;0.20;;;9.90;99.90;;;;;;5081381;28;20016;-74
2023/04/25 08:04:27;;;;;;;0.10;0.10;;;10.00;99.90;;;;;;5080236;28;20028;-72
2023/04/25 08:06:56;;;;;;;0.10;0.10;;;10.10;99.90;;;;;;5080868;28;20035;-72
2023/04/25 08:09:22;;;;;;;0.10;0.10;;;10.10;99.90;;;;;;5080134;28;20214;-72
2023/04/25 08:11:48;;;;;;;0.45;0.45;;;10.20;99.90;;;;;;5081510;28;20031;-72
2023/04/25 08:14:14;;;;;;;0.10;0.10;;;10.30;99.90;;;;;;5080787;28;20028;-72
2023/04/25 08:16:40;;;;;;;0.10;0.10;;;10.40;99.90;;;;;;5079254;28;20039;-73
2023/04/25 08:19:06;;;;;;;0.10;0.10;;;10.30;99.90;;;;;;5079516;28;20036;-73
2023/04/25 08:21:32;;;;;;;0.20;0.20;;;10.30;99.90;;;;;;5083827;28;20024;-73
2023/04/25 08:23:58;;;;;;;0.13;0.13;;;10.40;99.90;;;;;;5082500;28;20669;-75
2023/04/25 08:26:24;;;;;;;0.10;0.10;;;10.40;99.90;;;;;;5080980;28;20077;-72
2023/04/25 08:28:50;;;;;;;0.10;0.10;;;10.50;99.90;;;;;;5079754;28;20043;-73
2023/04/25 08:31:16;;;;;;;0.20;0.20;;;10.60;99.90;;;;;;5080410;28;20022;-73
2023/04/25 08:33:43;;;;;;;0.30;0.30;;;10.60;99.90;;;;;;5080077;28;20024;-73
2023/04/25 08:36:09;;;;;;;0.20;0.20;;;10.60;99.90;;;;;;5079810;28;20023;-72
2023/04/25 08:38:36;;;;;;;0.20;0.20;;;10.50;99.90;;;;;;5081888;28;20008;-72
2023/04/25 08:41:02;;;;;;;0.13;0.13;;;10.70;99.90;;;;;;5080327;28;20028;-73
2023/04/25 08:43:30;;;;;;;0.10;0.10;;;10.60;99.90;;;;;;5080258;28;20096;-73
2023/04/25 08:46:00;;;;;;;0.20;0.20;;;10.60;99.90;;;;;;5080577;28;20028;-74
2023/04/25 08:48:28;;;;;;;0.20;0.20;;;10.80;99.90;;;;;;5080260;28;20131;-72
2023/04/25 08:50:55;;;;;;;0.10;0.10;;;11.30;99.90;;;;;;5079898;28;20093;-73
2023/04/25 08:53:27;;;;;;;0.10;0.10;;;11.80;99.90;;;;;;5078610;28;20047;-73
2023/04/25 08:55:58;;;;;;;0.10;0.10;;;11.80;99.90;;;;;;5078740;28;20670;-73
2023/04/25 08:58:24;;;;;;;0.10;0.10;;;11.90;99.90;;;;;;5079419;28;20187;-73
2023/04/25 09:00:52;;;;;;;0.20;0.20;;;11.70;99.90;;;;;;5079295;28;20008;-73
2023/04/25 09:03:18;;;;;;;0.20;0.20;;;11.60;99.90;;;;;;5079249;28;20023;-73
2023/04/25 09:05:44;;;;;;;0.10;0.10;;;11.50;99.90;;;;;;5079369;28;20020;-72
2023/04/25 09:08:10;;;;;;;0.20;0.20;;;11.60;99.90;;;;;;5079409;28;20024;-73
2023/04/25 09:10:37;;;;;;;0.73;0.73;;;11.60;99.90;;;;;;5078186;28;20085;-71
2023/04/25 09:13:12;;;;;;;0.10;0.10;;;11.60;99.90;;;;;;5078864;28;20016;-73
2023/04/25 09:15:52;;;;;;;0.20;0.20;;;11.50;99.90;;;;;;5078445;28;20498;-80
2023/04/25 09:18:29;;;;;;;0.20;0.20;;;11.60;99.90;;;;;;5080786;28;20081;-71
2023/04/25 09:20:56;;;;;;;0.25;0.25;;;11.50;99.90;;;;;;5079590;28;20020;-74
2023/04/25 09:23:23;;;;;;;0.20;0.20;;;11.50;99.90;;;;;;5080285;28;20342;-73
2023/04/25 09:25:53;;;;;;;0.20;0.20;;;11.80;99.90;;;;;;5082481;28;20024;-74
2023/04/25 09:28:27;;;;;;;0.10;0.10;;;12.00;99.90;;;;;;5079337;28;20032;-72
2023/04/25 09:30:59;;;;;;;0.20;0.20;;;12.10;99.90;;;;;;5079735;28;20442;-73
2023/04/25 09:33:32;;;;;;;0.10;0.10;;;12.10;99.90;;;;;;5081142;28;20032;-73
2023/04/25 09:36:07;;;;;;;0.10;0.10;;;12.10;99.90;;;;;;5084461;28;20043;-77
2023/04/25 09:38:43;;;;;;;0.10;0.10;;;11.90;99.90;;;;;;5086780;28;20028;-72
2023/04/25 09:41:10;;;;;;;0.10;0.10;;;12.00;99.90;;;;;;5084151;28;20741;-73
2023/04/25 09:43:36;;;;;;;0.22;0.22;;;12.00;99.90;;;;;;5081693;28;20032;-73
2023/04/25 09:46:07;;;;;;;0.20;0.20;;;12.10;99.90;;;;;;5079291;28;20208;-73
2023/04/25 09:48:33;;;;;;;0.10;0.10;;;12.40;99.90;;;;;;5078495;28;20039;-73
2023/04/25 09:51:13;;;;;;;2.28;2.17;;;12.50;99.90;;;;;;5077587;28;20054;-73
2023/04/25 09:53:50;;;;;;;0.10;0.10;;;12.70;99.90;;;;;;5077074;28;20773;-72
2023/04/25 09:56:17;;;;;;;0.20;0.20;;;12.70;99.90;;;;;;5077291;28;20119;-73
2023/04/25 09:58:43;;;;;;;0.10;0.10;;;12.80;99.90;;;;;;5076876;28;20020;-72
2023/04/25 10:01:11;;;;;;;0.10;0.10;;;13.20;99.90;;;;;;5077076;28;20077;-74
2023/04/25 10:03:39;;;;;;;0.10;0.10;;;13.50;99.90;;;;;;5077257;28;20031;-73
2023/04/25 10:06:14;;;;;;;0.20;0.20;;;13.70;99.90;;;;;;5077263;28;20077;-73
2023/04/25 10:08:41;;;;;;;8.68;7.88;;;13.90;99.90;;;;;;5077150;28;20020;-75
2023/04/25 10:11:08;;;;;;;0.77;0.77;;;13.90;99.90;;;;;;5076787;28;20116;-79
2023/04/25 10:13:35;;;;;;;0.20;0.20;;;14.00;99.90;;;;;;5075620;28;20028;-73
2023/04/25 10:16:04;;;;;;;0.10;0.10;;;13.90;99.90;;;;;;5077336;28;20024;-79
2023/04/25 10:18:32;;;;;;;0.30;0.30;;;14.20;99.90;;;;;;5077347;28;20028;-73
2023/04/25 10:21:01;;;;;;;0.10;0.10;;;14.30;99.90;;;;;;5077073;28;20131;-78
2023/04/25 10:23:29;;;;;;;0.10;0.10;;;14.40;99.90;;;;;;5077026;28;20482;-75
2023/04/25 10:25:56;;;;;;;0.13;0.13;;;14.20;99.90;;;;;;5075963;28;20109;-81
2023/04/25 10:28:22;;;;;;;0.20;0.20;;;13.90;99.90;;;;;;5077244;28;20365;-77
2023/04/25 10:30:57;;;;;;;0.10;0.10;;;13.70;99.90;;;;;;5077184;28;20502;-73
2023/04/25 10:33:36;;;;;;;0.10;0.10;;;13.60;99.90;;;;;;5077150;28;20231;-79
2023/04/25 10:36:18;;;;;;;0.10;0.10;;;13.70;99.90;;;;;;5076839;28;20086;-72
2023/04/25 10:38:45;;;;;;;0.10;0.10;;;13.70;99.90;;;;;;5076477;28;20026;-71
2023/04/25 10:41:12;;;;;;;0.10;0.10;;;13.90;99.90;;;;;;5076614;28;20032;-71
2023/04/25 10:43:40;;;;;;;0.10;0.10;;;13.90;99.90;;;;;;5076499;28;20076;-71
2023/04/25 10:46:22;;;;;;;0.10;0.10;;;14.00;99.90;;;;;;5076438;28;20641;-72
2023/04/25 10:48:56;;;;;;;0.10;0.10;;;14.10;99.90;;;;;;5074774;28;20039;-75
2023/04/25 10:51:26;;;;;;;0.10;0.10;;;14.20;99.90;;;;;;5076996;28;20077;-73
2023/04/25 10:53:55;;;;;;;0.10;0.10;;;14.40;99.90;;;;;;5079972;28;20032;-71
2023/04/25 10:56:22;;;;;;;0.38;0.38;;;14.70;99.90;;;;;;5078721;28;20027;-71
2023/04/25 10:58:49;;;;;;;0.10;0.10;;;15.10;99.90;;;;;;5080223;28;20241;-74
2023/04/25 11:01:25;;;;;;;0.10;0.10;;;15.50;99.90;;;;;;5080178;28;20046;-72
2023/04/25 11:03:58;;;;;;;1.27;1.17;;;15.90;99.90;;;;;;5078008;28;20042;-73
2023/04/25 11:07:02;;;;;;;0.10;0.10;;;16.30;99.90;;;;;;5079262;28;20024;-74
2023/04/25 11:09:28;;;;;;;0.10;0.10;;;16.40;99.90;;;;;;5081114;28;20111;-72
2023/04/25 11:11:58;;;;;;;0.73;0.73;;;16.80;99.90;;;;;;5081383;28;20036;-73
2023/04/25 11:14:24;;;;;;;0.20;0.20;;;16.90;98.80;;;;;;5080157;28;20020;-78
2023/04/25 11:17:10;;;;;;;0.10;0.10;;;16.90;98.90;;;;;;5081145;28;20023;-82
2023/04/25 11:19:36;;;;;;;0.10;0.10;;;17.20;99.90;;;;;;5080980;28;20032;-81
2023/04/25 11:22:03;;;;;;;0.10;0.10;;;17.70;99.90;;;;;;5080514;28;20032;-74
2023/04/25 11:24:36;;;;;;;0.10;0.10;;;17.80;98.10;;;;;;5080465;28;20020;-75
2023/04/25 11:27:03;;;;;;;0.32;0.32;;;18.10;99.60;;;;;;5080536;28;20016;-74
2023/04/25 11:29:34;;;;;;;0.10;0.10;;;18.70;99.10;;;;;;5079885;28;20028;-73
2023/04/25 11:32:00;;;;;;;0.10;0.10;;;18.90;95.60;;;;;;5080233;28;20024;-73
2023/04/25 11:34:30;;;;;;;0.30;0.30;;;18.90;92.30;;;;;;5080827;28;20224;-80
2023/04/25 11:36:56;;;;;;;0.20;0.20;;;19.00;94.40;;;;;;5080862;28;20224;-77
2023/04/25 11:39:24;;;;;;;0.10;0.10;;;19.20;91.10;;;;;;5080630;28;20088;-81
2023/04/25 11:41:50;;;;;;;0.10;0.10;;;19.40;90.90;;;;;;5080175;28;20212;-81
2023/04/25 11:44:18;;;;;;;0.22;0.22;;;19.60;87.40;;;;;;5080309;28;20048;-76
2023/04/25 11:46:44;;;;;;;0.10;0.10;;;19.50;80.60;;;;;;5079820;28;20048;-76
2023/04/25 11:49:11;;;;;;;0.10;0.10;;;19.00;81.90;;;;;;5080366;28;20718;-80
2023/04/25 11:51:47;;;;;;;0.10;0.10;;;18.50;85.10;;;;;;5080445;28;20024;-73
2023/04/25 11:54:13;;;;;;;1.75;1.48;;;18.40;86.30;;;;;;5079963;28;20052;-74
2023/04/25 11:56:44;;;;;;;0.10;0.10;;;18.40;87.90;;;;;;5079867;28;20020;-79
2023/04/25 11:59:09;;;;;;;0.20;0.20;;;18.30;90.00;;;;;;5079343;28;20099;-75
2023/04/25 12:01:37;;;;;;;0.13;0.13;;;18.80;90.70;;;;;;5078213;28;20152;-74
2023/04/25 12:04:23;;;;;;;3.05;2.78;;;19.60;83.70;;;;;;5078502;28;20024;-79
2023/04/25 12:06:51;;;;;;;0.25;0.25;;;20.00;78.60;;;;;;5079973;28;20103;-73
2023/04/25 12:09:21;;;;;;;0.10;0.10;;;20.40;77.00;;;;;;5079159;28;20108;-73
2023/04/25 12:11:55;;;;;;;0.10;0.10;;;20.30;74.20;;;;;;5077835;28;20143;-74
2023/04/25 12:14:26;;;;;;;0.15;0.15;;;20.50;72.60;;;;;;5079674;28;20720;-78
2023/04/25 12:16:54;;;;;;;0.08;0.08;;;20.40;74.30;;;;;;5077947;28;20035;-78
2023/04/25 12:19:20;;;;;;;0.80;0.75;;;20.20;76.40;;;;;;5079031;28;20012;-73
2023/04/25 12:21:47;;;;;;;0.10;0.10;;;20.10;79.10;;;;;;5077877;28;20032;-73
2023/04/25 12:24:25;;;;;;;0.45;0.45;;;19.70;81.50;;;;;;5079780;28;20050;-78
2023/04/25 12:27:05;;;;;;;0.10;0.10;;;19.40;83.00;;;;;;5078820;28;20008;-76
2023/04/25 12:29:33;;;;;;;0.10;0.10;;;19.30;77.90;;;;;;5079184;28;20074;-80
2023/04/25 12:32:01;;;;;;;0.10;0.10;;;19.00;77.80;;;;;;5079080;28;20036;-74
2023/04/25 12:34:27;;;;;;;0.10;0.10;;;18.80;82.40;;;;;;5078848;28;20745;-74
2023/04/25 12:36:53;;;;;;;0.10;0.10;;;18.80;79.50;;;;;;5079130;28;20016;-75
2023/04/25 12:39:24;;;;;;;0.10;0.10;;;19.10;79.20;;;;;;5079048;28;20562;-72
2023/04/25 12:41:56;;;;;;;0.10;0.10;;;19.40;78.80;;;;;;5077796;28;20032;-79
2023/04/25 12:44:22;;;;;;;0.10;0.10;;;19.90;77.90;;;;;;5078392;28;20573;-77
2023/04/25 12:46:48;;;;;;;0.10;0.10;;;19.40;79.20;;;;;;5078112;28;20045;-79
2023/04/25 12:49:14;;;;;;;0.47;0.28;;;19.70;77.20;;;;;;5078310;28;20107;-78
2023/04/25 12:51:41;;;;;;;0.10;0.10;;;20.10;76.60;;;;;;5078992;28;20499;-78